Time;durP1;ratioP1;P1;durP2;ratioP2;P2;SDS_P1;SDS_P2;PMS_P1;PMS_P2;Temp;Humidity;BMP_temperature;BMP_pressure;BME280_temperature;BME280_humidity;BME280_pressure;Samples;Min_cycle;Max_cycle;Signal;HPM_P1;HPM_P2
2021/01/31 00:01:09;;;;;;;4.20;3.50;;;;;;;;;;5026113;28;20435;-66
2021/01/31 00:03:36;;;;;;;4.00;3.17;;;;;;;;;;5016478;28;20430;-66
2021/01/31 00:06:03;;;;;;;3.90;2.97;;;;;;;;;;5022677;28;20476;-66
2021/01/31 00:08:29;;;;;;;2.83;2.30;;;;;;;;;;5035671;28;20421;-66
2021/01/31 00:10:56;;;;;;;4.13;2.67;;;;;;;;;;5034668;28;20489;-66
2021/01/31 00:13:23;;;;;;;3.53;2.50;;;;;;;;;;5035453;28;20429;-66
2021/01/31 00:15:49;;;;;;;3.20;2.50;;;;;;;;;;5028681;28;20468;-66
2021/01/31 00:18:17;;;;;;;3.17;2.87;;;;;;;;;;5015866;28;20783;-67
2021/01/31 00:20:45;;;;;;;2.97;2.33;;;;;;;;;;5020194;28;20447;-66
2021/01/31 00:23:11;;;;;;;2.40;1.70;;;;;;;;;;5035664;28;20513;-67
2021/01/31 00:25:37;;;;;;;2.07;1.87;;;;;;;;;;5031303;28;20468;-66
2021/01/31 00:28:04;;;;;;;3.20;2.23;;;;;;;;;;5015749;28;20408;-66
2021/01/31 00:30:37;;;;;;;2.47;2.00;;;;;;;;;;5015256;28;20443;-66
2021/01/31 00:33:07;;;;;;;2.60;1.77;;;;;;;;;;5015397;28;20436;-66
2021/01/31 00:35:36;;;;;;;3.60;2.03;;;;;;;;;;5017797;28;20488;-66
2021/01/31 00:38:03;;;;;;;2.10;1.90;;;;;;;;;;5034858;28;20403;-66
2021/01/31 00:40:29;;;;;;;4.03;2.07;;;;;;;;;;5031008;28;20519;-66
2021/01/31 00:42:55;;;;;;;2.63;2.00;;;;;;;;;;5034966;28;20573;-66
2021/01/31 00:45:22;;;;;;;4.70;2.37;;;;;;;;;;5033759;28;20849;-66
2021/01/31 00:47:48;;;;;;;2.90;2.17;;;;;;;;;;5034660;28;20415;-66
2021/01/31 00:50:19;;;;;;;4.40;2.27;;;;;;;;;;5034335;28;20529;-66
2021/01/31 00:52:45;;;;;;;2.67;2.07;;;;;;;;;;5034539;28;20917;-66
2021/01/31 00:55:11;;;;;;;3.40;2.60;;;;;;;;;;5034744;28;20407;-66
2021/01/31 00:57:37;;;;;;;3.00;2.40;;;;;;;;;;5033944;28;20438;-66
2021/01/31 01:00:12;;;;;;;2.50;2.13;;;;;;;;;;5034605;28;20401;-66
2021/01/31 01:02:38;;;;;;;3.47;2.60;;;;;;;;;;5033646;28;20451;-66
2021/01/31 01:05:04;;;;;;;3.67;2.47;;;;;;;;;;5034414;28;20396;-66
2021/01/31 01:07:30;;;;;;;2.63;2.37;;;;;;;;;;5033590;28;20428;-66
2021/01/31 01:09:56;;;;;;;2.20;2.00;;;;;;;;;;5034460;28;20913;-66
2021/01/31 01:12:22;;;;;;;3.80;2.70;;;;;;;;;;5032045;28;20444;-66
2021/01/31 01:14:48;;;;;;;3.40;2.67;;;;;;;;;;5033407;28;20482;-66
2021/01/31 01:17:14;;;;;;;3.60;2.90;;;;;;;;;;5018818;28;20459;-66
2021/01/31 01:19:40;;;;;;;3.00;2.40;;;;;;;;;;5014545;28;20739;-66
2021/01/31 01:22:06;;;;;;;2.60;2.10;;;;;;;;;;5027629;28;20439;-66
2021/01/31 01:24:32;;;;;;;3.30;2.53;;;;;;;;;;5034210;28;20403;-68
2021/01/31 01:26:58;;;;;;;3.07;2.30;;;;;;;;;;5032945;28;20518;-66
2021/01/31 01:29:24;;;;;;;2.90;2.40;;;;;;;;;;5033940;28;20813;-67
2021/01/31 01:31:50;;;;;;;3.00;2.70;;;;;;;;;;5033310;28;20487;-67
2021/01/31 01:34:16;;;;;;;3.10;2.77;;;;;;;;;;5034183;28;20472;-67
2021/01/31 01:36:42;;;;;;;4.13;3.13;;;;;;;;;;5033036;28;20467;-66
2021/01/31 01:39:08;;;;;;;4.70;3.57;;;;;;;;;;5032627;28;20428;-66
2021/01/31 01:41:41;;;;;;;4.83;3.80;;;;;;;;;;5024871;28;20450;-66
2021/01/31 01:44:08;;;;;;;4.13;3.37;;;;;;;;;;5013900;28;20455;-66
2021/01/31 01:46:38;;;;;;;4.57;3.90;;;;;;;;;;5020936;28;20927;-66
2021/01/31 01:49:07;;;;;;;3.90;3.13;;;;;;;;;;5034215;28;20392;-65
2021/01/31 01:51:39;;;;;;;5.30;4.20;;;;;;;;;;5032741;28;20429;-65
2021/01/31 01:54:07;;;;;;;5.60;3.93;;;;;;;;;;5033626;28;21023;-66
2021/01/31 01:56:37;;;;;;;5.07;4.30;;;;;;;;;;5033046;28;20459;-66
2021/01/31 01:59:04;;;;;;;8.10;5.03;;;;;;;;;;5033335;28;20412;-66
2021/01/31 02:01:30;;;;;;;7.17;4.70;;;;;;;;;;5020434;28;20986;-66
2021/01/31 02:03:57;;;;;;;6.77;6.07;;;;;;;;;;5033672;28;20472;-66
2021/01/31 02:06:25;;;;;;;7.03;5.80;;;;;;;;;;5027227;28;20494;-66
2021/01/31 02:08:54;;;;;;;9.20;6.50;;;;;;;;;;5013505;28;20491;-66
2021/01/31 02:11:21;;;;;;;7.50;6.13;;;;;;;;;;5018425;28;20438;-65
2021/01/31 02:13:50;;;;;;;7.50;5.43;;;;;;;;;;5033171;28;20461;-65
2021/01/31 02:16:20;;;;;;;6.67;5.77;;;;;;;;;;5030421;28;20471;-65
2021/01/31 02:19:09;;;;;;;8.70;6.37;;;;;;;;;;5027105;28;20455;-65
2021/01/31 02:21:53;;;;;;;6.10;4.83;;;;;;;;;;4995959;28;21653;-65
2021/01/31 02:24:19;;;;;;;8.50;5.80;;;;;;;;;;5033092;28;20506;-65
2021/01/31 02:26:45;;;;;;;6.20;5.57;;;;;;;;;;5032594;28;20460;-66
2021/01/31 02:29:17;;;;;;;9.27;6.43;;;;;;;;;;5033104;28;20438;-65
2021/01/31 02:31:54;;;;;;;7.67;6.17;;;;;;;;;;5029630;28;20455;-65
2021/01/31 02:34:25;;;;;;;9.43;6.17;;;;;;;;;;5015520;28;20439;-67
2021/01/31 02:37:08;;;;;;;9.53;6.97;;;;;;;;;;5033114;28;20553;-66
2021/01/31 02:39:58;;;;;;;10.60;7.00;;;;;;;;;;5034324;28;20400;-66
2021/01/31 02:42:27;;;;;;;9.20;6.60;;;;;;;;;;4997050;28;20896;-67
2021/01/31 02:44:57;;;;;;;8.03;6.57;;;;;;;;;;5014237;28;20473;-66
2021/01/31 02:47:24;;;;;;;7.50;6.07;;;;;;;;;;5021186;28;20563;-66
2021/01/31 02:49:52;;;;;;;8.10;5.63;;;;;;;;;;5032832;28;20739;-66
2021/01/31 02:52:28;;;;;;;7.20;5.50;;;;;;;;;;5031630;28;20461;-65
2021/01/31 02:55:23;;;;;;;8.80;6.60;;;;;;;;;;5032705;28;20442;-66
2021/01/31 02:57:52;;;;;;;8.10;6.70;;;;;;;;;;5019008;28;20456;-66
2021/01/31 03:00:23;;;;;;;8.57;6.50;;;;;;;;;;5032897;28;20937;-65
2021/01/31 03:02:58;;;;;;;7.90;6.90;;;;;;;;;;5034322;28;20554;-65
2021/01/31 03:05:30;;;;;;;8.87;6.80;;;;;;;;;;5038425;28;20459;-65
2021/01/31 03:07:59;;;;;;;10.37;7.00;;;;;;;;;;5027581;28;20420;-65
2021/01/31 03:10:44;;;;;;;9.63;7.13;;;;;;;;;;5020073;28;20489;-65
2021/01/31 03:13:25;;;;;;;9.57;7.27;;;;;;;;;;5031685;28;20458;-66
2021/01/31 03:15:55;;;;;;;8.47;7.13;;;;;;;;;;5020490;28;20469;-65
2021/01/31 03:18:31;;;;;;;7.17;5.83;;;;;;;;;;5034026;28;20458;-65
2021/01/31 03:21:00;;;;;;;6.43;5.33;;;;;;;;;;5040837;28;20455;-65
2021/01/31 03:23:34;;;;;;;11.27;6.20;;;;;;;;;;5034883;28;20447;-66
2021/01/31 03:26:03;;;;;;;7.50;5.37;;;;;;;;;;5020005;28;20520;-66
2021/01/31 03:28:29;;;;;;;6.67;5.80;;;;;;;;;;5019742;28;20446;-65
2021/01/31 03:30:56;;;;;;;9.03;6.00;;;;;;;;;;5027730;28;20443;-65
2021/01/31 03:33:25;;;;;;;7.50;5.50;;;;;;;;;;5039220;28;20446;-66
2021/01/31 03:35:52;;;;;;;6.97;5.80;;;;;;;;;;5030172;28;20473;-65
2021/01/31 03:38:23;;;;;;;6.73;5.73;;;;;;;;;;5019321;28;20404;-65
2021/01/31 03:40:52;;;;;;;8.03;5.87;;;;;;;;;;5026986;28;20464;-65
2021/01/31 03:43:18;;;;;;;8.70;6.07;;;;;;;;;;5039240;28;20455;-65
2021/01/31 03:46:03;;;;;;;7.87;6.10;;;;;;;;;;5032808;28;20463;-65
2021/01/31 03:48:31;;;;;;;7.37;6.10;;;;;;;;;;5020237;28;20431;-66
2021/01/31 03:50:57;;;;;;;8.70;6.27;;;;;;;;;;5027417;28;20439;-66
2021/01/31 03:53:23;;;;;;;6.93;6.17;;;;;;;;;;5037765;28;20952;-66
2021/01/31 03:55:49;;;;;;;8.87;6.43;;;;;;;;;;5032168;28;20875;-66
2021/01/31 03:58:17;;;;;;;9.40;6.67;;;;;;;;;;5038784;28;20877;-66
2021/01/31 04:00:49;;;;;;;8.00;6.50;;;;;;;;;;5038440;28;20485;-66
2021/01/31 04:03:50;;;;;;;9.23;6.40;;;;;;;;;;5038953;28;20426;-66
2021/01/31 04:06:19;;;;;;;7.13;5.77;;;;;;;;;;4976750;28;20478;-66
2021/01/31 04:08:47;;;;;;;8.97;6.87;;;;;;;;;;5027634;28;20416;-66
2021/01/31 04:11:28;;;;;;;7.87;6.27;;;;;;;;;;5037447;28;20439;-66
2021/01/31 04:13:54;;;;;;;13.37;6.80;;;;;;;;;;5036071;28;20429;-66
2021/01/31 04:16:20;;;;;;;9.20;6.80;;;;;;;;;;5034487;28;20507;-66
2021/01/31 04:18:46;;;;;;;7.67;5.60;;;;;;;;;;5035789;28;20405;-66
2021/01/31 04:21:12;;;;;;;7.30;6.20;;;;;;;;;;5034220;28;20433;-67
2021/01/31 04:23:38;;;;;;;8.20;6.80;;;;;;;;;;5035376;28;20459;-66
2021/01/31 04:26:04;;;;;;;8.47;6.73;;;;;;;;;;5034390;28;20778;-66
2021/01/31 04:28:30;;;;;;;11.30;7.67;;;;;;;;;;5028990;28;20471;-66
2021/01/31 04:30:57;;;;;;;9.27;7.13;;;;;;;;;;5021974;28;20511;-66
2021/01/31 04:33:24;;;;;;;10.10;7.87;;;;;;;;;;5035379;28;20423;-66
2021/01/31 04:35:51;;;;;;;10.73;7.53;;;;;;;;;;5029224;28;20467;-66
2021/01/31 04:38:17;;;;;;;10.87;7.43;;;;;;;;;;5015642;28;20405;-66
2021/01/31 04:40:43;;;;;;;9.47;6.50;;;;;;;;;;5020791;28;20434;-66
2021/01/31 04:43:11;;;;;;;10.63;6.23;;;;;;;;;;5015060;28;20945;-66
2021/01/31 04:45:39;;;;;;;9.30;6.60;;;;;;;;;;5018416;28;20472;-66
2021/01/31 04:48:05;;;;;;;9.80;7.23;;;;;;;;;;5035002;28;21012;-66
2021/01/31 04:50:37;;;;;;;7.07;5.53;;;;;;;;;;5034627;28;20442;-67
2021/01/31 04:53:13;;;;;;;8.83;6.47;;;;;;;;;;5034933;28;20919;-66
2021/01/31 04:55:39;;;;;;;10.47;6.57;;;;;;;;;;5031225;28;20474;-66
2021/01/31 04:58:22;;;;;;;11.07;7.73;;;;;;;;;;5015033;28;20396;-66
2021/01/31 05:00:53;;;;;;;7.50;6.40;;;;;;;;;;5018758;28;20424;-66
2021/01/31 05:03:20;;;;;;;8.10;6.60;;;;;;;;;;5034666;28;20425;-66
2021/01/31 05:05:54;;;;;;;9.77;7.40;;;;;;;;;;5030340;28;20485;-66
2021/01/31 05:08:22;;;;;;;10.50;7.13;;;;;;;;;;5015126;28;20403;-66
2021/01/31 05:10:50;;;;;;;11.40;7.43;;;;;;;;;;5018392;28;20426;-66
2021/01/31 05:13:16;;;;;;;9.50;6.73;;;;;;;;;;5034943;28;20463;-66
2021/01/31 05:15:48;;;;;;;9.57;6.90;;;;;;;;;;5032074;28;20521;-66
2021/01/31 05:18:15;;;;;;;11.50;7.60;;;;;;;;;;5014715;28;20382;-66
2021/01/31 05:20:45;;;;;;;10.43;6.97;;;;;;;;;;5017053;28;20785;-66
2021/01/31 05:23:11;;;;;;;9.33;7.33;;;;;;;;;;5034612;28;20453;-66
2021/01/31 05:25:37;;;;;;;9.73;7.10;;;;;;;;;;5032353;28;20418;-66
2021/01/31 05:28:05;;;;;;;11.40;7.37;;;;;;;;;;5014459;28;20414;-66
2021/01/31 05:30:32;;;;;;;12.03;7.57;;;;;;;;;;5014766;28;20884;-66
2021/01/31 05:33:17;;;;;;;11.07;7.90;;;;;;;;;;5034190;28;20437;-66
2021/01/31 05:35:44;;;;;;;13.77;9.57;;;;;;;;;;5031168;28;20466;-66
2021/01/31 05:38:15;;;;;;;11.70;7.47;;;;;;;;;;5014424;28;20407;-66
2021/01/31 05:40:45;;;;;;;9.77;6.90;;;;;;;;;;5015806;28;20881;-66
2021/01/31 05:43:15;;;;;;;13.73;7.53;;;;;;;;;;5033764;28;20531;-66
2021/01/31 05:45:44;;;;;;;11.93;8.20;;;;;;;;;;5031920;28;20401;-66
2021/01/31 05:48:36;;;;;;;10.40;7.60;;;;;;;;;;5014346;28;20458;-66
2021/01/31 05:51:13;;;;;;;12.10;7.47;;;;;;;;;;5014141;28;20863;-66
2021/01/31 05:53:39;;;;;;;11.53;8.60;;;;;;;;;;5033694;28;20446;-66
2021/01/31 05:56:21;;;;;;;12.77;7.20;;;;;;;;;;5027795;28;20465;-66
2021/01/31 05:58:48;;;;;;;9.47;7.17;;;;;;;;;;5012663;28;20418;-66
2021/01/31 06:01:14;;;;;;;11.10;7.50;;;;;;;;;;5014132;28;20476;-66
2021/01/31 06:03:41;;;;;;;14.10;7.80;;;;;;;;;;5021003;28;20463;-66
2021/01/31 06:06:19;;;;;;;11.63;6.50;;;;;;;;;;5032812;28;20441;-66
2021/01/31 06:08:46;;;;;;;12.47;7.03;;;;;;;;;;5032211;28;20448;-66
2021/01/31 06:11:32;;;;;;;12.70;8.30;;;;;;;;;;5032644;28;20467;-66
2021/01/31 06:14:04;;;;;;;10.77;7.03;;;;;;;;;;5033590;28;20510;-66
2021/01/31 06:16:30;;;;;;;12.30;8.17;;;;;;;;;;5032503;28;20956;-66
2021/01/31 06:19:08;;;;;;;12.17;7.90;;;;;;;;;;5033492;28;20404;-66
2021/01/31 06:21:45;;;;;;;13.70;7.77;;;;;;;;;;5032572;28;20439;-66
2021/01/31 06:24:23;;;;;;;12.43;7.47;;;;;;;;;;5033140;28;20514;-66
2021/01/31 06:26:49;;;;;;;13.20;6.57;;;;;;;;;;5024130;28;20424;-66
2021/01/31 06:29:25;;;;;;;11.20;7.40;;;;;;;;;;5013473;28;20417;-66
2021/01/31 06:31:58;;;;;;;10.13;7.63;;;;;;;;;;5021825;28;20519;-66
2021/01/31 06:34:24;;;;;;;10.27;7.33;;;;;;;;;;5033323;28;20397;-66
2021/01/31 06:37:00;;;;;;;12.03;6.60;;;;;;;;;;5023435;28;20448;-66
2021/01/31 06:39:37;;;;;;;9.10;7.30;;;;;;;;;;5013412;28;20442;-67
2021/01/31 06:42:12;;;;;;;8.90;7.40;;;;;;;;;;5019724;28;20431;-67
2021/01/31 06:44:47;;;;;;;14.27;8.23;;;;;;;;;;5053362;23;20486;-69
2021/01/31 06:47:32;;;;;;;10.50;7.50;;;;;;;;;;5031688;28;20463;-69
2021/01/31 06:50:10;;;;;;;9.60;7.47;;;;;;;;;;5032230;28;20430;-69
2021/01/31 06:52:45;;;;;;;9.97;7.40;;;;;;;;;;5031353;28;20430;-69
2021/01/31 06:55:23;;;;;;;11.30;7.00;;;;;;;;;;5032543;28;20406;-69
2021/01/31 06:58:00;;;;;;;13.80;8.17;;;;;;;;;;5031475;28;20798;-69
2021/01/31 07:00:44;;;;;;;10.00;8.13;;;;;;;;;;5032670;28;20458;-69
2021/01/31 07:03:32;;;;;;;12.27;6.93;;;;;;;;;;5031530;28;20523;-69
2021/01/31 07:05:58;;;;;;;10.03;6.97;;;;;;;;;;5031790;28;20427;-68
2021/01/31 07:08:24;;;;;;;9.90;7.17;;;;;;;;;;5012516;28;20424;-68
2021/01/31 07:11:02;;;;;;;13.10;8.23;;;;;;;;;;5012341;28;20435;-68
2021/01/31 07:13:37;;;;;;;10.53;7.90;;;;;;;;;;5014859;28;20465;-68
2021/01/31 07:16:21;;;;;;;13.60;7.90;;;;;;;;;;5031145;28;20455;-69
2021/01/31 07:19:00;;;;;;;8.90;7.80;;;;;;;;;;5012671;28;20400;-69
2021/01/31 07:21:45;;;;;;;11.50;7.97;;;;;;;;;;5016058;28;20509;-68
2021/01/31 07:24:21;;;;;;;14.07;7.10;;;;;;;;;;5031980;28;20419;-68
2021/01/31 07:27:26;;;;;;;7.43;5.80;;;;;;;;;;5029917;28;20768;-68
2021/01/31 07:30:05;;;;;;;11.00;7.17;;;;;;;;;;4945975;29;20501;-68
2021/01/31 07:32:40;;;;;;;8.13;6.33;;;;;;;;;;4948353;28;20446;-69
2021/01/31 07:35:09;;;;;;;9.07;6.70;;;;;;;;;;4990067;28;20415;-68
2021/01/31 07:37:36;;;;;;;11.10;7.17;;;;;;;;;;5030468;28;20435;-68
2021/01/31 07:40:06;;;;;;;10.50;6.67;;;;;;;;;;5032014;28;20414;-68
2021/01/31 07:42:32;;;;;;;13.47;7.63;;;;;;;;;;5031014;28;20808;-67
2021/01/31 07:45:02;;;;;;;9.30;5.97;;;;;;;;;;5032308;28;20842;-68
2021/01/31 07:47:28;;;;;;;7.40;6.23;;;;;;;;;;5029742;28;20426;-68
2021/01/31 07:49:57;;;;;;;10.73;7.53;;;;;;;;;;5035295;28;20393;-69
2021/01/31 07:52:24;;;;;;;10.00;6.47;;;;;;;;;;5024754;28;20439;-68
2021/01/31 07:55:07;;;;;;;10.53;6.97;;;;;;;;;;5027202;28;20432;-69
2021/01/31 07:57:34;;;;;;;10.33;7.03;;;;;;;;;;5032306;28;20428;-68
2021/01/31 08:00:02;;;;;;;11.27;7.07;;;;;;;;;;5033556;28;20440;-68
2021/01/31 08:02:42;;;;;;;11.10;6.37;;;;;;;;;;5026191;28;20935;-67
2021/01/31 08:05:13;;;;;;;11.00;6.57;;;;;;;;;;5034072;28;20427;-67
2021/01/31 08:07:57;;;;;;;10.10;7.03;;;;;;;;;;5032298;28;20437;-68
2021/01/31 08:10:42;;;;;;;10.40;7.10;;;;;;;;;;5034987;28;20416;-69
2021/01/31 08:13:13;;;;;;;10.03;6.33;;;;;;;;;;5033234;28;20543;-68
2021/01/31 08:15:40;;;;;;;9.50;6.50;;;;;;;;;;5034733;28;21018;-68
2021/01/31 08:18:06;;;;;;;10.07;6.77;;;;;;;;;;5033245;28;20426;-68
2021/01/31 08:20:39;;;;;;;11.00;6.23;;;;;;;;;;5029720;28;20490;-68
2021/01/31 08:23:25;;;;;;;11.17;5.70;;;;;;;;;;5015385;28;20471;-68
2021/01/31 08:25:55;;;;;;;9.90;7.83;;;;;;;;;;5015136;28;20908;-68
2021/01/31 08:28:29;;;;;;;9.07;7.40;;;;;;;;;;5030432;28;20431;-68
2021/01/31 08:31:13;;;;;;;9.63;6.53;;;;;;;;;;5034903;28;20404;-68
2021/01/31 08:33:43;;;;;;;9.40;6.67;;;;;;;;;;5015352;28;20607;-68
2021/01/31 08:36:09;;;;;;;9.50;6.87;;;;;;;;;;5013502;28;20455;-68
2021/01/31 08:38:35;;;;;;;8.33;7.00;;;;;;;;;;5032657;28;20509;-68
2021/01/31 08:41:04;;;;;;;11.07;7.80;;;;;;;;;;5034673;28;20412;-68
2021/01/31 08:43:30;;;;;;;9.20;7.03;;;;;;;;;;5033573;28;20955;-68
2021/01/31 08:46:06;;;;;;;10.87;7.40;;;;;;;;;;5034774;28;20462;-68
2021/01/31 08:48:32;;;;;;;11.40;7.00;;;;;;;;;;5033679;28;20916;-69
2021/01/31 08:51:04;;;;;;;10.53;7.10;;;;;;;;;;5034481;28;20414;-69
2021/01/31 08:53:30;;;;;;;9.57;6.97;;;;;;;;;;5017157;28;20455;-69
2021/01/31 08:56:10;;;;;;;11.67;7.57;;;;;;;;;;5034070;28;20454;-69
2021/01/31 08:58:38;;;;;;;11.07;7.17;;;;;;;;;;5016559;28;20520;-69
2021/01/31 09:01:04;;;;;;;13.27;7.73;;;;;;;;;;5013828;28;20854;-69
2021/01/31 09:03:30;;;;;;;10.87;6.90;;;;;;;;;;5030406;28;20451;-69
2021/01/31 09:05:58;;;;;;;12.13;7.60;;;;;;;;;;5034577;28;20399;-69
2021/01/31 09:08:25;;;;;;;11.60;8.10;;;;;;;;;;5033537;28;20470;-69
2021/01/31 09:10:51;;;;;;;13.13;8.37;;;;;;;;;;5034535;28;20918;-69
2021/01/31 09:13:25;;;;;;;8.90;6.60;;;;;;;;;;5019401;28;20457;-69
2021/01/31 09:15:51;;;;;;;11.87;7.77;;;;;;;;;;5014496;28;20922;-69
2021/01/31 09:18:26;;;;;;;11.73;7.50;;;;;;;;;;5027533;28;20499;-69
2021/01/31 09:20:52;;;;;;;10.03;7.30;;;;;;;;;;5034330;28;20479;-69
2021/01/31 09:23:31;;;;;;;13.80;8.57;;;;;;;;;;5032846;28;20459;-69
2021/01/31 09:25:57;;;;;;;15.03;8.77;;;;;;;;;;5034140;28;20400;-69
2021/01/31 09:28:24;;;;;;;10.10;7.60;;;;;;;;;;5032383;28;20432;-69
2021/01/31 09:30:54;;;;;;;9.20;7.23;;;;;;;;;;5033087;28;20425;-69
2021/01/31 09:33:30;;;;;;;13.53;8.17;;;;;;;;;;5019214;28;20457;-69
2021/01/31 09:35:56;;;;;;;9.23;7.27;;;;;;;;;;5014090;28;20490;-69
2021/01/31 09:38:27;;;;;;;13.77;7.50;;;;;;;;;;5027992;28;20977;-69
2021/01/31 09:40:55;;;;;;;9.87;7.20;;;;;;;;;;5033546;28;20490;-68
2021/01/31 09:43:24;;;;;;;12.23;8.47;;;;;;;;;;5032781;28;20538;-69
2021/01/31 09:45:53;;;;;;;14.27;7.53;;;;;;;;;;5032519;28;20424;-68
2021/01/31 09:48:20;;;;;;;11.27;7.00;;;;;;;;;;5032567;28;20440;-69
2021/01/31 09:51:00;;;;;;;12.63;8.07;;;;;;;;;;5032275;28;20441;-69
2021/01/31 09:53:28;;;;;;;13.80;8.57;;;;;;;;;;5031720;28;20452;-69
2021/01/31 09:55:54;;;;;;;11.30;8.10;;;;;;;;;;5033334;28;20853;-69
2021/01/31 09:58:22;;;;;;;13.90;8.03;;;;;;;;;;5032475;28;20975;-69
2021/01/31 10:00:49;;;;;;;13.50;8.97;;;;;;;;;;5031694;28;20452;-69
2021/01/31 10:03:23;;;;;;;17.40;9.37;;;;;;;;;;5032772;28;20448;-68
2021/01/31 10:05:50;;;;;;;13.00;8.67;;;;;;;;;;5033098;28;20446;-68
2021/01/31 10:08:18;;;;;;;11.73;8.90;;;;;;;;;;5032400;28;20513;-69
2021/01/31 10:10:45;;;;;;;10.90;8.20;;;;;;;;;;5033069;28;20541;-68
2021/01/31 10:13:23;;;;;;;13.90;9.03;;;;;;;;;;5031299;28;20454;-68
2021/01/31 10:15:53;;;;;;;13.30;9.20;;;;;;;;;;5033183;28;20454;-69
2021/01/31 10:18:26;;;;;;;15.97;9.30;;;;;;;;;;5030509;28;20920;-69
2021/01/31 10:21:11;;;;;;;12.27;8.57;;;;;;;;;;5032748;28;20902;-68
2021/01/31 10:23:37;;;;;;;15.30;8.93;;;;;;;;;;5029842;28;20953;-69
2021/01/31 10:26:04;;;;;;;13.77;8.70;;;;;;;;;;5031301;28;20428;-69
2021/01/31 10:28:38;;;;;;;16.93;9.53;;;;;;;;;;5031904;28;20932;-68
2021/01/31 10:31:04;;;;;;;14.40;8.70;;;;;;;;;;5030887;28;20755;-69
2021/01/31 10:33:39;;;;;;;14.70;9.47;;;;;;;;;;5031728;28;20504;-69
2021/01/31 10:36:24;;;;;;;16.30;8.43;;;;;;;;;;5026958;28;20458;-69
2021/01/31 10:38:51;;;;;;;12.13;8.53;;;;;;;;;;5032534;28;20398;-69
2021/01/31 10:41:17;;;;;;;14.53;9.73;;;;;;;;;;5031852;28;20434;-68
2021/01/31 10:43:43;;;;;;;14.20;10.00;;;;;;;;;;5032678;28;20443;-69
2021/01/31 10:46:09;;;;;;;17.30;9.90;;;;;;;;;;5031755;28;20965;-69
2021/01/31 10:48:35;;;;;;;12.93;9.30;;;;;;;;;;5032458;28;20486;-68
2021/01/31 10:51:01;;;;;;;12.43;9.77;;;;;;;;;;5031715;28;20535;-69
2021/01/31 10:53:27;;;;;;;15.50;10.50;;;;;;;;;;5032334;28;20443;-68
2021/01/31 10:55:53;;;;;;;14.60;9.50;;;;;;;;;;5031249;28;20463;-69
2021/01/31 10:58:19;;;;;;;16.87;11.07;;;;;;;;;;5032414;28;20405;-69
2021/01/31 11:00:45;;;;;;;16.53;10.20;;;;;;;;;;5030567;28;20565;-69
2021/01/31 11:03:11;;;;;;;15.47;9.57;;;;;;;;;;5032124;28;20418;-69
2021/01/31 11:05:37;;;;;;;18.13;10.90;;;;;;;;;;5030860;28;20435;-69
2021/01/31 11:08:04;;;;;;;16.13;10.37;;;;;;;;;;5031904;28;20439;-69
2021/01/31 11:10:30;;;;;;;15.87;9.37;;;;;;;;;;5031035;28;20434;-69
2021/01/31 11:12:56;;;;;;;16.00;9.17;;;;;;;;;;5031995;28;20439;-69
2021/01/31 11:15:22;;;;;;;14.23;9.00;;;;;;;;;;5026743;28;20467;-69
2021/01/31 11:17:48;;;;;;;17.43;10.50;;;;;;;;;;5012333;28;20412;-68
2021/01/31 11:20:14;;;;;;;14.47;9.73;;;;;;;;;;5015447;28;20423;-69
2021/01/31 11:22:40;;;;;;;18.03;9.57;;;;;;;;;;5030630;28;20931;-68
2021/01/31 11:25:07;;;;;;;19.43;8.70;;;;;;;;;;5033222;28;20434;-68
2021/01/31 11:27:33;;;;;;;18.13;10.53;;;;;;;;;;5016052;28;20532;-68
2021/01/31 11:29:59;;;;;;;15.20;10.00;;;;;;;;;;5017101;28;20436;-68
2021/01/31 11:32:25;;;;;;;14.23;10.50;;;;;;;;;;5036208;28;20509;-68
2021/01/31 11:34:51;;;;;;;18.00;10.73;;;;;;;;;;5035060;28;20517;-68
2021/01/31 11:37:17;;;;;;;12.20;8.53;;;;;;;;;;5015711;28;20474;-68
2021/01/31 11:39:43;;;;;;;15.33;8.93;;;;;;;;;;5016009;28;20460;-68
2021/01/31 11:42:09;;;;;;;19.53;10.67;;;;;;;;;;5032890;28;20510;-68
2021/01/31 11:44:35;;;;;;;15.77;10.03;;;;;;;;;;5035470;28;20950;-68
2021/01/31 11:47:01;;;;;;;18.10;10.77;;;;;;;;;;5034161;28;20440;-69
2021/01/31 11:49:27;;;;;;;15.83;9.77;;;;;;;;;;5036127;28;20406;-68
2021/01/31 11:51:53;;;;;;;17.60;9.10;;;;;;;;;;5035059;28;20513;-68
2021/01/31 11:54:19;;;;;;;16.90;10.30;;;;;;;;;;5035339;28;20437;-68
2021/01/31 11:56:45;;;;;;;14.80;9.83;;;;;;;;;;5035023;28;20466;-68
2021/01/31 11:59:11;;;;;;;16.77;10.17;;;;;;;;;;5035534;28;20399;-68
2021/01/31 12:01:38;;;;;;;14.07;9.17;;;;;;;;;;5034498;28;20424;-70
2021/01/31 12:04:05;;;;;;;17.20;11.20;;;;;;;;;;5033975;28;20526;-69
2021/01/31 12:06:31;;;;;;;14.10;9.90;;;;;;;;;;5034434;28;20437;-69
2021/01/31 12:08:57;;;;;;;19.30;9.93;;;;;;;;;;5035369;28;20409;-69
2021/01/31 12:11:23;;;;;;;19.63;12.13;;;;;;;;;;5034607;28;20431;-69
2021/01/31 12:13:49;;;;;;;16.53;12.00;;;;;;;;;;5035238;28;20439;-69
2021/01/31 12:16:15;;;;;;;17.03;10.33;;;;;;;;;;5032868;28;20493;-69
2021/01/31 12:18:41;;;;;;;18.47;10.07;;;;;;;;;;5033788;28;20461;-69
2021/01/31 12:21:07;;;;;;;17.07;10.13;;;;;;;;;;5026840;28;20433;-69
2021/01/31 12:23:33;;;;;;;19.00;12.60;;;;;;;;;;5015054;28;20934;-69
2021/01/31 12:25:59;;;;;;;16.47;10.10;;;;;;;;;;5021855;28;20459;-69
2021/01/31 12:28:25;;;;;;;21.20;11.63;;;;;;;;;;5034948;28;20470;-69
2021/01/31 12:30:51;;;;;;;16.47;10.73;;;;;;;;;;5034147;28;20822;-69
2021/01/31 12:33:17;;;;;;;20.30;11.93;;;;;;;;;;5034965;28;20437;-69
2021/01/31 12:35:43;;;;;;;18.93;11.10;;;;;;;;;;5032704;28;20479;-69
2021/01/31 12:38:09;;;;;;;22.63;11.30;;;;;;;;;;5034600;28;20479;-69
2021/01/31 12:40:35;;;;;;;16.00;10.50;;;;;;;;;;5033895;28;20462;-69
2021/01/31 12:43:02;;;;;;;17.20;12.17;;;;;;;;;;5056347;22;21013;-67
2021/01/31 12:45:28;;;;;;;16.10;10.50;;;;;;;;;;5013982;28;20436;-67
2021/01/31 12:47:54;;;;;;;18.43;12.60;;;;;;;;;;5015048;28;20394;-66
2021/01/31 12:50:22;;;;;;;22.30;12.97;;;;;;;;;;5014780;28;20721;-67
2021/01/31 12:52:48;;;;;;;17.90;12.00;;;;;;;;;;5015219;28;20709;-66
2021/01/31 12:55:15;;;;;;;20.63;11.20;;;;;;;;;;5015359;28;20393;-66
2021/01/31 12:57:42;;;;;;;18.03;10.00;;;;;;;;;;5014849;28;20464;-66
2021/01/31 13:00:09;;;;;;;17.47;11.60;;;;;;;;;;5015389;28;20404;-66
2021/01/31 13:02:37;;;;;;;24.70;12.40;;;;;;;;;;5014675;28;20810;-66
2021/01/31 13:05:04;;;;;;;17.77;11.93;;;;;;;;;;5014731;28;20510;-66
2021/01/31 13:07:30;;;;;;;25.17;12.20;;;;;;;;;;5014198;28;20795;-66
2021/01/31 13:09:56;;;;;;;18.03;12.43;;;;;;;;;;5014716;28;20419;-66
2021/01/31 13:12:22;;;;;;;25.70;13.80;;;;;;;;;;4998222;28;20511;-66
2021/01/31 13:14:48;;;;;;;17.37;12.40;;;;;;;;;;4994912;28;20432;-66
2021/01/31 13:17:15;;;;;;;21.20;11.33;;;;;;;;;;5009538;28;20473;-66
2021/01/31 13:19:41;;;;;;;21.57;11.57;;;;;;;;;;5014569;28;20421;-66
2021/01/31 13:22:07;;;;;;;16.60;11.23;;;;;;;;;;5000084;28;20545;-66
2021/01/31 13:24:33;;;;;;;17.90;9.90;;;;;;;;;;4994593;28;20440;-67
2021/01/31 13:26:59;;;;;;;22.20;12.07;;;;;;;;;;5006577;28;20428;-66
2021/01/31 13:29:25;;;;;;;16.90;10.87;;;;;;;;;;5014462;28;20796;-65
2021/01/31 13:31:51;;;;;;;19.67;11.10;;;;;;;;;;5006001;28;20433;-65
2021/01/31 13:34:17;;;;;;;18.60;11.10;;;;;;;;;;4994661;28;20954;-65
2021/01/31 13:36:43;;;;;;;16.87;10.57;;;;;;;;;;4994727;28;20470;-66
2021/01/31 13:39:09;;;;;;;17.30;11.37;;;;;;;;;;5007792;28;20431;-66
2021/01/31 13:41:36;;;;;;;18.80;11.50;;;;;;;;;;5012613;28;20904;-66
2021/01/31 13:44:02;;;;;;;20.20;11.00;;;;;;;;;;5012794;28;20515;-65
2021/01/31 13:46:28;;;;;;;16.53;10.40;;;;;;;;;;5006134;28;20426;-65
2021/01/31 13:48:54;;;;;;;16.40;10.97;;;;;;;;;;4994863;28;20464;-66
2021/01/31 13:51:20;;;;;;;22.30;12.77;;;;;;;;;;4994393;28;20762;-66
2021/01/31 13:53:46;;;;;;;20.43;13.00;;;;;;;;;;5001344;28;20456;-65
2021/01/31 13:56:12;;;;;;;20.57;12.53;;;;;;;;;;5012236;28;20454;-66
2021/01/31 13:58:39;;;;;;;16.33;10.53;;;;;;;;;;5012189;28;20421;-65
2021/01/31 14:01:05;;;;;;;16.87;11.23;;;;;;;;;;5013443;28;20439;-66
2021/01/31 14:03:31;;;;;;;19.07;10.80;;;;;;;;;;5013578;28;20925;-65
2021/01/31 14:05:57;;;;;;;17.90;10.73;;;;;;;;;;5013141;28;20409;-65
2021/01/31 14:08:23;;;;;;;13.57;10.03;;;;;;;;;;5016040;28;20482;-65
2021/01/31 14:10:49;;;;;;;18.00;11.13;;;;;;;;;;5012991;28;20458;-65
2021/01/31 14:13:15;;;;;;;16.87;11.40;;;;;;;;;;5012573;28;20485;-65
2021/01/31 14:15:41;;;;;;;16.90;11.73;;;;;;;;;;5013635;28;20772;-65
2021/01/31 14:18:08;;;;;;;18.53;11.93;;;;;;;;;;5013592;28;20842;-65
2021/01/31 14:20:34;;;;;;;24.23;11.10;;;;;;;;;;5013882;28;20401;-65
2021/01/31 14:23:00;;;;;;;20.50;10.87;;;;;;;;;;5012743;28;20975;-65
2021/01/31 14:25:27;;;;;;;20.20;12.00;;;;;;;;;;5013548;28;20412;-65
2021/01/31 14:27:53;;;;;;;19.67;12.40;;;;;;;;;;5011483;28;20428;-64
2021/01/31 14:30:20;;;;;;;21.97;12.90;;;;;;;;;;5013805;28;20408;-64
2021/01/31 14:32:46;;;;;;;19.00;11.73;;;;;;;;;;5012538;28;20442;-65
2021/01/31 14:35:19;;;;;;;23.33;13.87;;;;;;;;;;5013226;28;20403;-64
2021/01/31 14:37:45;;;;;;;19.63;11.10;;;;;;;;;;5012892;28;20516;-64
2021/01/31 14:40:12;;;;;;;33.70;15.30;;;;;;;;;;5013404;28;20874;-65
2021/01/31 14:42:38;;;;;;;22.40;13.10;;;;;;;;;;5011854;28;20874;-65
2021/01/31 14:45:06;;;;;;;26.10;12.23;;;;;;;;;;5013232;28;20476;-67